createdAt,value
2018-07-09T00:00:05.933Z,84.30
2018-07-09T00:02:09.784Z,84.40
2018-07-09T00:04:13.380Z,84.60
2018-07-09T00:06:17.073Z,84.50
2018-07-09T00:08:21.521Z,84.70
2018-07-09T00:10:36.269Z,84.60
2018-07-09T00:12:40.098Z,84.90
2018-07-09T00:14:43.764Z,85.10
2018-07-09T00:16:47.479Z,85.20
2018-07-09T00:18:51.206Z,85.00
2018-07-09T00:20:54.850Z,85.40
2018-07-09T00:22:58.603Z,85.20
2018-07-09T00:25:02.416Z,84.90
2018-07-09T00:27:06.280Z,85.00
2018-07-09T00:29:10.279Z,85.40
2018-07-09T00:31:13.950Z,85.10
2018-07-09T00:33:18.208Z,85.20
2018-07-09T00:35:21.895Z,85.20
2018-07-09T00:37:25.611Z,85.30
2018-07-09T00:39:29.428Z,85.10
2018-07-09T00:41:33.302Z,85.60
2018-07-09T00:43:37.224Z,86.40
2018-07-09T00:45:41.047Z,86.00
2018-07-09T00:49:48.203Z,86.20
2018-07-09T00:51:51.808Z,86.70
2018-07-09T00:53:57.188Z,87.00
2018-07-09T00:56:00.814Z,87.30
2018-07-09T00:58:04.684Z,87.60
2018-07-09T01:00:08.367Z,87.70
2018-07-09T01:02:12.078Z,87.40
2018-07-09T01:04:15.704Z,87.30
2018-07-09T01:06:19.421Z,87.40
2018-07-09T01:08:27.669Z,87.50
2018-07-09T01:10:31.964Z,87.40
2018-07-09T01:12:35.658Z,87.60
2018-07-09T01:14:39.810Z,88.10
2018-07-09T01:16:43.588Z,88.70
2018-07-09T01:18:47.242Z,88.70
2018-07-09T01:20:50.960Z,88.80
2018-07-09T01:22:55.169Z,88.70
2018-07-09T01:24:58.936Z,89.30
2018-07-09T01:27:02.692Z,89.20
2018-07-09T01:29:06.364Z,89.10
2018-07-09T01:31:10.019Z,89.50
2018-07-09T01:33:13.867Z,89.30
2018-07-09T01:35:17.535Z,89.60
2018-07-09T01:37:21.378Z,89.90
2018-07-09T01:39:25.074Z,90.00
2018-07-09T01:41:28.724Z,90.00
2018-07-09T01:43:32.396Z,89.80
2018-07-09T01:45:36.096Z,90.00
2018-07-09T01:47:39.823Z,90.10
2018-07-09T01:49:43.497Z,90.20
2018-07-09T01:51:47.139Z,90.40
2018-07-09T01:53:50.824Z,90.40
2018-07-09T01:55:54.548Z,90.30
2018-07-09T01:57:58.267Z,90.40
2018-07-09T02:00:02.083Z,90.50
2018-07-09T02:02:05.867Z,90.70
2018-07-09T02:04:09.898Z,90.90
2018-07-09T02:08:16.781Z,90.90
2018-07-09T02:10:20.406Z,90.90
2018-07-09T02:12:24.226Z,90.90
2018-07-09T02:14:28.088Z,91.10
2018-07-09T02:16:31.731Z,91.20
2018-07-09T02:18:35.452Z,91.40
2018-07-09T02:20:39.146Z,91.50
2018-07-09T02:22:42.688Z,91.40
2018-07-09T02:26:49.737Z,91.50
2018-07-09T02:28:53.418Z,91.50
2018-07-09T02:30:57.124Z,91.50
2018-07-09T02:33:01.913Z,91.60
2018-07-09T02:35:05.769Z,91.70
2018-07-09T02:37:09.580Z,91.70
2018-07-09T02:39:13.244Z,91.70
2018-07-09T02:41:16.869Z,91.90
2018-07-09T02:43:20.802Z,91.90
2018-07-09T02:45:24.509Z,92.10
2018-07-09T02:47:28.292Z,92.30
2018-07-09T02:49:31.956Z,92.60
2018-07-09T02:51:35.688Z,92.80
2018-07-09T02:53:39.301Z,93.10
2018-07-09T02:55:43.091Z,93.20
2018-07-09T02:57:46.745Z,93.40
2018-07-09T02:59:50.530Z,93.30
2018-07-09T03:01:54.172Z,93.30
2018-07-09T03:03:57.908Z,93.30
2018-07-09T03:06:01.682Z,93.30
2018-07-09T03:08:05.618Z,93.30
2018-07-09T03:10:09.633Z,93.40
2018-07-09T03:12:14.456Z,93.40
2018-07-09T03:14:18.216Z,93.50
2018-07-09T03:16:21.969Z,93.80
2018-07-09T03:18:25.585Z,93.90
2018-07-09T03:20:29.224Z,93.80
2018-07-09T03:22:33.028Z,93.70
2018-07-09T03:24:36.671Z,93.80
2018-07-09T03:26:40.332Z,93.70
2018-07-09T03:28:43.921Z,93.70
2018-07-09T03:30:47.722Z,93.60
2018-07-09T03:32:51.511Z,93.50
2018-07-09T03:34:55.201Z,93.50
2018-07-09T03:36:58.892Z,93.70
2018-07-09T03:39:02.614Z,94.20
2018-07-09T03:41:06.316Z,94.30
2018-07-09T03:43:10.155Z,94.40
2018-07-09T03:45:13.821Z,94.50
2018-07-09T03:47:17.537Z,94.40
2018-07-09T03:49:21.269Z,94.40
2018-07-09T03:51:24.949Z,94.40
2018-07-09T03:53:28.668Z,94.40
2018-07-09T03:55:32.394Z,94.40
2018-07-09T03:57:36.100Z,94.40
2018-07-09T03:59:39.785Z,94.50
2018-07-09T04:01:43.481Z,94.70
2018-07-09T04:03:47.074Z,94.50
2018-07-09T04:05:50.860Z,94.60
2018-07-09T04:07:54.608Z,94.60
2018-07-09T04:09:58.368Z,94.50
2018-07-09T04:12:02.051Z,94.50
2018-07-09T04:14:05.733Z,94.60
2018-07-09T04:16:09.383Z,94.70
2018-07-09T04:18:13.003Z,94.60
2018-07-09T04:20:16.706Z,94.60
2018-07-09T04:22:20.408Z,94.50
2018-07-09T04:24:24.115Z,94.50
2018-07-09T04:26:28.715Z,94.60
2018-07-09T04:28:32.474Z,94.70
2018-07-09T04:30:36.273Z,94.80
2018-07-09T04:32:40.106Z,94.90
2018-07-09T04:34:43.797Z,95.00
2018-07-09T04:36:47.436Z,95.10
2018-07-09T04:38:51.151Z,95.20
2018-07-09T04:40:54.950Z,95.30
2018-07-09T04:42:58.877Z,95.10
2018-07-09T04:45:02.524Z,95.30
2018-07-09T04:47:06.303Z,95.20
2018-07-09T04:49:10.008Z,95.00
2018-07-09T04:51:13.978Z,95.00
2018-07-09T04:53:17.936Z,94.80
2018-07-09T04:55:21.680Z,94.80
2018-07-09T04:57:25.835Z,94.70
2018-07-09T04:59:29.433Z,94.70
2018-07-09T05:01:33.301Z,94.70
2018-07-09T05:03:37.055Z,94.70
2018-07-09T05:05:40.996Z,94.70
2018-07-09T05:07:44.571Z,94.80
2018-07-09T05:09:48.411Z,94.50
2018-07-09T05:13:55.556Z,94.60
2018-07-09T05:15:59.297Z,94.60
2018-07-09T05:18:03.133Z,94.60
2018-07-09T05:20:06.785Z,94.60
2018-07-09T05:22:10.400Z,94.50
2018-07-09T05:24:14.105Z,94.50
2018-07-09T05:26:17.750Z,94.30
2018-07-09T05:28:21.409Z,94.30
2018-07-09T05:30:25.028Z,94.40
2018-07-09T05:32:28.642Z,94.30
2018-07-09T05:34:32.251Z,94.30
2018-07-09T05:36:35.968Z,94.20
2018-07-09T05:38:39.727Z,94.00
2018-07-09T05:40:43.333Z,94.00
2018-07-09T05:42:48.523Z,94.00
2018-07-09T05:44:52.058Z,94.00
2018-07-09T05:46:55.794Z,94.00
2018-07-09T05:49:01.553Z,93.80
2018-07-09T05:51:05.407Z,93.80
2018-07-09T05:53:09.104Z,93.70
2018-07-09T05:55:12.661Z,93.70
2018-07-09T05:57:16.540Z,93.50
2018-07-09T05:59:20.123Z,93.40
2018-07-09T06:01:23.811Z,93.10
2018-07-09T06:03:27.452Z,93.20
2018-07-09T06:05:31.052Z,93.60
2018-07-09T06:09:37.945Z,93.20
2018-07-09T06:11:41.568Z,92.90
2018-07-09T06:13:45.467Z,93.00
2018-07-09T06:15:49.037Z,93.20
2018-07-09T06:17:52.678Z,92.80
2018-07-09T06:19:56.307Z,92.70
2018-07-09T06:22:00.519Z,92.90
2018-07-09T06:24:04.211Z,92.80
2018-07-09T06:26:07.819Z,92.80
2018-07-09T06:28:11.532Z,92.70
2018-07-09T06:30:15.179Z,92.80
2018-07-09T06:32:18.787Z,92.80
2018-07-09T06:34:22.623Z,92.60
2018-07-09T06:36:26.291Z,92.40
2018-07-09T06:38:29.923Z,92.10
2018-07-09T06:40:33.604Z,92.40
2018-07-09T06:42:37.324Z,92.00
2018-07-09T06:44:40.916Z,92.10
2018-07-09T06:46:44.453Z,91.60
2018-07-09T06:48:48.212Z,91.60
2018-07-09T06:50:51.959Z,91.20
2018-07-09T06:52:55.539Z,91.20
2018-07-09T06:54:59.233Z,91.80
2018-07-09T06:57:02.892Z,91.30
2018-07-09T06:59:06.531Z,91.90
2018-07-09T07:01:10.188Z,91.00
2018-07-09T07:03:13.794Z,90.90
2018-07-09T07:05:17.459Z,90.90
2018-07-09T07:07:21.043Z,90.30
2018-07-09T07:09:24.696Z,90.40
2018-07-09T07:11:28.374Z,90.60
2018-07-09T07:13:32.004Z,90.50
2018-07-09T07:15:35.592Z,90.30
2018-07-09T07:17:39.255Z,90.00
2018-07-09T07:19:42.894Z,90.30
2018-07-09T07:21:46.459Z,89.80
2018-07-09T07:23:50.071Z,88.70
2018-07-09T07:25:53.860Z,89.10
2018-07-09T07:27:57.547Z,89.20
2018-07-09T07:30:01.284Z,89.90
2018-07-09T07:32:05.322Z,88.90
2018-07-09T07:34:09.340Z,88.20
2018-07-09T07:36:12.980Z,88.10
2018-07-09T07:38:16.566Z,87.20
2018-07-09T07:40:20.316Z,87.10
2018-07-09T07:42:23.980Z,87.60
2018-07-09T07:44:27.540Z,87.50
2018-07-09T07:46:31.573Z,87.00
2018-07-09T07:48:35.396Z,87.40
2018-07-09T07:50:39.194Z,86.70
2018-07-09T07:52:42.671Z,86.20
2018-07-09T07:54:46.455Z,87.10
2018-07-09T07:56:50.064Z,87.40
2018-07-09T07:58:53.984Z,87.40
2018-07-09T08:00:57.575Z,86.70
2018-07-09T08:03:01.348Z,88.10
2018-07-09T08:05:04.965Z,84.50
2018-07-09T08:07:08.505Z,86.00
2018-07-09T08:09:13.108Z,85.30
2018-07-09T08:13:28.996Z,85.80
2018-07-09T08:15:24.649Z,86.60
2018-07-09T08:17:28.322Z,83.60
2018-07-09T08:19:32.034Z,83.00
2018-07-09T08:21:35.706Z,83.20
2018-07-09T08:23:41.296Z,82.30
2018-07-09T08:25:45.280Z,82.40
2018-07-09T08:27:48.816Z,81.10
2018-07-09T08:29:52.387Z,81.60
2018-07-09T08:31:56.144Z,81.00
2018-07-09T08:34:00.053Z,82.70
2018-07-09T08:36:03.698Z,83.50
2018-07-09T08:38:07.470Z,83.10
2018-07-09T08:40:11.151Z,83.20
2018-07-09T08:42:14.880Z,82.40
2018-07-09T08:46:21.936Z,82.30
2018-07-09T08:48:25.543Z,80.40
2018-07-09T08:50:29.104Z,82.10
2018-07-09T08:52:32.888Z,82.50
2018-07-09T08:54:36.545Z,79.50
2018-07-09T08:56:40.227Z,79.70
2018-07-09T08:58:43.896Z,80.50
2018-07-09T09:00:47.660Z,79.40
2018-07-09T09:02:51.615Z,79.90
2018-07-09T09:06:58.697Z,81.30
2018-07-09T09:09:02.378Z,78.60
2018-07-09T09:11:06.042Z,79.60
2018-07-09T09:13:09.663Z,81.40
2018-07-09T09:15:13.360Z,79.20
2018-07-09T09:17:17.001Z,79.20
2018-07-09T09:19:20.747Z,79.50
2018-07-09T09:21:24.363Z,77.80
2018-07-09T09:23:27.999Z,78.40
2018-07-09T09:25:31.764Z,78.20
2018-07-09T09:27:35.383Z,76.90
2018-07-09T09:29:39.092Z,77.00
2018-07-09T09:31:42.657Z,75.40
2018-07-09T09:33:46.275Z,74.30
2018-07-09T09:35:50.024Z,73.90
2018-07-09T09:37:53.687Z,74.20
2018-07-09T09:39:57.571Z,73.60
2018-07-09T09:42:01.163Z,75.70
2018-07-09T09:44:05.419Z,75.70
2018-07-09T09:46:09.735Z,74.20
2018-07-09T09:48:13.367Z,74.20
2018-07-09T09:50:17.000Z,73.60
2018-07-09T09:52:20.641Z,75.70
2018-07-09T09:54:24.259Z,72.20
2018-07-09T09:56:27.846Z,72.50
2018-07-09T09:58:31.511Z,72.60
2018-07-09T10:02:45.184Z,72.00
2018-07-09T10:04:48.782Z,72.90
2018-07-09T10:06:52.386Z,72.20
2018-07-09T10:08:55.952Z,71.50
2018-07-09T10:10:59.543Z,72.80
2018-07-09T10:13:03.161Z,72.40
2018-07-09T10:19:13.360Z,70.50
2018-07-09T10:21:17.042Z,70.20
2018-07-09T10:23:21.202Z,70.00
2018-07-09T10:25:24.687Z,71.00
2018-07-09T10:27:28.283Z,70.50
2018-07-09T10:29:31.993Z,70.70
2018-07-09T10:31:35.681Z,68.30
2018-07-09T10:33:39.271Z,67.50
2018-07-09T10:35:43.091Z,68.10
2018-07-09T10:37:46.727Z,68.80
2018-07-09T10:39:50.323Z,68.90
2018-07-09T10:41:54.723Z,68.30
2018-07-09T10:43:58.340Z,68.70
2018-07-09T10:46:01.989Z,68.80
2018-07-09T10:48:05.712Z,67.00
2018-07-09T10:50:09.347Z,67.60
2018-07-09T10:52:13.043Z,66.80
2018-07-09T10:54:16.660Z,67.30
2018-07-09T10:56:20.334Z,69.20
2018-07-09T10:58:23.945Z,68.50
2018-07-09T11:00:27.645Z,68.70
2018-07-09T11:02:31.283Z,69.30
2018-07-09T11:04:34.888Z,69.70
2018-07-09T11:06:38.495Z,69.70
2018-07-09T11:08:42.120Z,69.30
2018-07-09T11:10:45.889Z,67.90
2018-07-09T11:12:49.490Z,68.10
2018-07-09T11:14:53.082Z,68.90
2018-07-09T11:16:56.822Z,69.80
2018-07-09T11:19:00.439Z,69.10
2018-07-09T11:21:04.128Z,67.80
2018-07-09T11:23:07.840Z,69.90
2018-07-09T11:25:11.553Z,68.60
2018-07-09T11:27:15.211Z,67.60
2018-07-09T11:29:18.973Z,67.60
2018-07-09T11:31:22.641Z,66.80
2018-07-09T11:33:26.296Z,67.30
2018-07-09T11:35:29.978Z,66.20
2018-07-09T11:37:33.620Z,65.10
2018-07-09T11:39:37.381Z,64.40
2018-07-09T11:41:40.976Z,65.70
2018-07-09T11:43:44.614Z,66.00
2018-07-09T11:45:48.293Z,65.90
2018-07-09T11:47:51.872Z,64.50
2018-07-09T11:49:55.595Z,64.70
2018-07-09T11:51:59.253Z,66.90
2018-07-09T11:54:03.848Z,67.70
2018-07-09T11:56:07.700Z,67.00
2018-07-09T11:58:11.403Z,66.80
2018-07-09T12:00:15.095Z,67.60
2018-07-09T12:02:19.390Z,66.30
2018-07-09T12:04:23.097Z,67.60
2018-07-09T12:06:26.668Z,66.00
2018-07-09T12:08:30.390Z,66.40
2018-07-09T12:10:34.311Z,67.70
2018-07-09T12:12:37.902Z,68.60
2018-07-09T12:14:41.566Z,68.10
2018-07-09T12:16:45.226Z,67.70
2018-07-09T12:18:48.793Z,65.20
2018-07-09T12:20:52.440Z,65.80
2018-07-09T12:22:56.081Z,65.60
2018-07-09T12:25:00.390Z,65.50
2018-07-09T12:27:04.048Z,65.90
2018-07-09T12:29:07.695Z,65.40
2018-07-09T12:31:11.360Z,65.50
2018-07-09T12:33:15.045Z,65.10
2018-07-09T12:37:21.979Z,64.80
2018-07-09T12:39:25.625Z,64.80
2018-07-09T12:41:29.288Z,64.90
2018-07-09T12:43:32.868Z,64.00
2018-07-09T12:45:36.633Z,64.00
2018-07-09T12:49:43.673Z,64.70
2018-07-09T12:51:47.255Z,64.00
2018-07-09T12:53:51.547Z,64.20
2018-07-09T12:55:55.528Z,63.60
2018-07-09T12:57:59.162Z,63.30
2018-07-09T13:00:02.841Z,64.00
2018-07-09T13:02:06.472Z,63.60
2018-07-09T13:04:10.171Z,64.50
2018-07-09T13:06:13.851Z,63.10
2018-07-09T13:10:20.670Z,62.10
2018-07-09T13:12:27.531Z,61.60
2018-07-09T13:14:31.217Z,63.80
2018-07-09T13:16:34.757Z,64.60
2018-07-09T13:18:38.459Z,64.10
2018-07-09T13:20:42.109Z,63.00
2018-07-09T13:22:45.867Z,62.00
2018-07-09T13:24:49.728Z,61.70
2018-07-09T13:26:53.527Z,60.80
2018-07-09T13:28:57.407Z,60.00
2018-07-09T13:31:01.194Z,59.60
2018-07-09T13:33:04.822Z,61.20
2018-07-09T13:35:08.427Z,60.40
2018-07-09T13:37:12.067Z,61.60
2018-07-09T13:39:15.675Z,60.70
2018-07-09T13:41:19.402Z,61.30
2018-07-09T13:43:23.048Z,59.80
2018-07-09T13:45:26.669Z,60.10
2018-07-09T13:47:30.345Z,60.00
2018-07-09T13:49:34.068Z,60.10
2018-07-09T13:51:37.869Z,61.10
2018-07-09T13:53:41.632Z,61.30
2018-07-09T13:55:45.239Z,60.40
2018-07-09T13:57:48.983Z,60.50
2018-07-09T13:59:52.616Z,59.60
2018-07-09T14:01:56.207Z,59.70
2018-07-09T14:03:59.749Z,59.10
2018-07-09T14:06:03.420Z,59.70
2018-07-09T14:08:07.198Z,61.20
2018-07-09T14:10:10.881Z,61.00
2018-07-09T14:12:14.495Z,60.80
2018-07-09T14:14:18.291Z,61.40
2018-07-09T14:16:22.011Z,61.60
2018-07-09T14:18:25.787Z,60.80
2018-07-09T14:20:39.302Z,60.10
2018-07-09T14:22:43.059Z,60.20
2018-07-09T14:24:46.739Z,61.40
2018-07-09T14:26:50.536Z,60.30
2018-07-09T14:28:54.186Z,62.40
2018-07-09T14:30:57.842Z,62.10
2018-07-09T14:33:01.530Z,62.50
2018-07-09T14:35:06.471Z,62.30
2018-07-09T14:37:10.217Z,61.50
2018-07-09T14:39:13.883Z,61.80
2018-07-09T14:41:17.601Z,60.20
2018-07-09T14:43:21.255Z,60.90
2018-07-09T14:45:24.936Z,59.50
2018-07-09T14:47:28.900Z,59.50
2018-07-09T14:49:33.707Z,59.50
2018-07-09T14:51:37.421Z,58.70
2018-07-09T14:53:41.048Z,58.20
2018-07-09T14:55:44.684Z,57.30
2018-07-09T14:57:48.368Z,58.30
2018-07-09T14:59:52.014Z,58.20
2018-07-09T15:01:55.669Z,58.70
2018-07-09T15:03:59.433Z,59.10
2018-07-09T15:06:03.209Z,58.70
2018-07-09T15:08:06.869Z,58.30
2018-07-09T15:10:10.616Z,58.40
2018-07-09T15:12:14.295Z,57.50
2018-07-09T15:14:17.921Z,57.60
2018-07-09T15:16:21.748Z,57.00
2018-07-09T15:18:25.496Z,56.60
2018-07-09T15:20:29.215Z,56.40
2018-07-09T15:22:32.962Z,57.70
2018-07-09T15:24:36.681Z,56.70
2018-07-09T15:26:40.405Z,56.60
2018-07-09T15:28:45.683Z,56.10
2018-07-09T15:30:49.616Z,56.50
2018-07-09T15:32:53.402Z,56.30
2018-07-09T15:34:57.122Z,56.30
2018-07-09T15:37:00.743Z,54.70
2018-07-09T15:39:05.136Z,55.70
2018-07-09T15:41:08.868Z,55.50
2018-07-09T15:43:12.468Z,54.50
2018-07-09T15:45:16.111Z,54.20
2018-07-09T15:47:19.873Z,54.00
2018-07-09T15:49:23.576Z,53.60
2018-07-09T15:51:27.419Z,54.10
2018-07-09T15:53:31.029Z,54.40
2018-07-09T15:55:34.630Z,54.40
2018-07-09T15:57:38.236Z,54.90
2018-07-09T15:59:41.936Z,54.70
2018-07-09T16:01:45.584Z,55.50
2018-07-09T16:03:49.441Z,54.70
2018-07-09T16:05:53.088Z,53.30
2018-07-09T16:07:56.710Z,53.10
2018-07-09T16:10:01.731Z,53.40
2018-07-09T16:12:05.405Z,53.90
2018-07-09T16:14:09.175Z,51.30
2018-07-09T16:16:12.824Z,51.00
2018-07-09T16:18:16.541Z,49.90
2018-07-09T16:20:21.286Z,46.90
2018-07-09T16:22:24.968Z,47.20
2018-07-09T16:24:28.643Z,47.70
2018-07-09T16:26:32.397Z,49.20
2018-07-09T16:28:36.052Z,49.40
2018-07-09T16:30:39.812Z,50.60
2018-07-09T16:32:43.371Z,50.80
2018-07-09T16:34:46.995Z,50.90
2018-07-09T16:36:50.739Z,50.60
2018-07-09T16:38:54.326Z,51.70
2018-07-09T16:43:01.686Z,52.30
2018-07-09T16:45:05.327Z,52.40
2018-07-09T16:47:08.975Z,52.90
2018-07-09T16:49:12.676Z,53.80
2018-07-09T16:51:16.380Z,53.80
2018-07-09T16:53:20.482Z,54.00
2018-07-09T16:55:24.172Z,54.20
2018-07-09T16:57:28.882Z,54.10
2018-07-09T16:59:32.571Z,54.60
2018-07-09T17:01:36.182Z,54.70
2018-07-09T17:03:39.852Z,53.70
2018-07-09T17:05:43.579Z,53.60
2018-07-09T17:07:47.251Z,53.60
2018-07-09T17:09:50.940Z,54.20
2018-07-09T17:11:54.583Z,54.20
2018-07-09T17:13:58.304Z,54.30
2018-07-09T17:16:02.052Z,54.70
2018-07-09T17:18:06.520Z,55.00
2018-07-09T17:20:10.344Z,54.80
2018-07-09T17:22:13.983Z,54.90
2018-07-09T17:24:17.604Z,55.20
2018-07-09T17:28:24.535Z,55.10
2018-07-09T17:30:28.340Z,55.20
2018-07-09T17:32:32.211Z,55.60
2018-07-09T17:34:35.696Z,56.30
2018-07-09T17:38:42.848Z,56.50
2018-07-09T17:40:46.632Z,55.10
2018-07-09T17:42:50.364Z,55.50
2018-07-09T17:44:54.120Z,56.30
2018-07-09T17:46:57.840Z,56.40
2018-07-09T17:49:01.746Z,56.20
2018-07-09T17:51:05.560Z,55.10
2018-07-09T17:53:09.164Z,56.30
2018-07-09T17:55:12.751Z,55.90
2018-07-09T17:57:16.536Z,56.40
2018-07-09T17:59:20.164Z,56.40
2018-07-09T18:01:23.886Z,56.70
2018-07-09T18:03:27.482Z,56.40
2018-07-09T18:05:31.150Z,57.20
2018-07-09T18:07:34.772Z,57.40
2018-07-09T18:09:38.389Z,57.20
2018-07-09T18:11:42.029Z,56.90
2018-07-09T18:13:45.703Z,56.60
2018-07-09T18:15:49.483Z,57.10
2018-07-09T18:17:53.584Z,57.70
2018-07-09T18:19:57.217Z,57.70
2018-07-09T18:22:00.941Z,57.80
2018-07-09T18:24:04.830Z,58.20
2018-07-09T18:26:08.636Z,57.90
2018-07-09T18:30:15.600Z,57.90
2018-07-09T18:32:19.338Z,58.20
2018-07-09T18:34:23.116Z,58.20
2018-07-09T18:36:26.861Z,58.10
2018-07-09T18:38:30.625Z,58.50
2018-07-09T18:40:34.470Z,58.70
2018-07-09T18:42:38.113Z,58.00
2018-07-09T18:44:41.741Z,58.20
2018-07-09T18:46:45.588Z,58.40
2018-07-09T18:48:49.631Z,58.80
2018-07-09T18:50:53.427Z,59.30
2018-07-09T18:52:57.033Z,59.30
2018-07-09T18:55:00.829Z,59.30
2018-07-09T18:57:05.043Z,59.80
2018-07-09T18:59:08.704Z,60.00
2018-07-09T19:01:12.378Z,60.30
2018-07-09T19:03:16.239Z,60.40
2018-07-09T19:05:27.335Z,60.70
2018-07-09T19:07:30.923Z,60.60
2018-07-09T19:09:35.234Z,60.40
2018-07-09T19:11:39.468Z,60.70
2018-07-09T19:13:43.391Z,60.40
2018-07-09T19:18:08.210Z,60.40
2018-07-09T19:21:22.594Z,60.70
2018-07-09T19:23:24.975Z,60.90
2018-07-09T19:25:27.371Z,60.90
2018-07-09T19:27:29.900Z,60.70
2018-07-09T19:29:32.352Z,60.70
2018-07-09T19:31:34.796Z,61.00
2018-07-09T19:33:37.601Z,60.10
2018-07-09T19:35:40.052Z,61.00
2018-07-09T19:37:42.957Z,59.80
2018-07-09T19:39:45.056Z,59.70
2018-07-09T19:41:47.590Z,59.60
2018-07-09T19:43:49.896Z,59.30
2018-07-09T19:45:52.401Z,59.40
2018-07-09T19:47:55.052Z,59.10
2018-07-09T19:49:57.559Z,59.30
2018-07-09T19:51:59.950Z,59.30
2018-07-09T19:54:02.368Z,58.90
2018-07-09T19:56:04.734Z,59.10
2018-07-09T19:58:07.130Z,59.20
2018-07-09T20:00:09.511Z,59.10
2018-07-09T20:02:12.017Z,59.10
2018-07-09T20:04:14.446Z,59.10
2018-07-09T20:06:16.830Z,59.60
2018-07-09T20:08:19.330Z,59.30
2018-07-09T20:10:27.165Z,59.50
2018-07-09T20:12:34.987Z,59.60
2018-07-09T20:14:42.787Z,59.90
2018-07-09T20:16:50.447Z,60.50
2018-07-09T20:18:53.659Z,60.20
2018-07-09T20:20:56.252Z,60.40
2018-07-09T20:22:58.612Z,60.10
2018-07-09T20:25:01.008Z,59.90
2018-07-09T20:27:03.600Z,59.10
2018-07-09T20:29:06.035Z,59.30
2018-07-09T20:31:08.570Z,59.00
2018-07-09T20:33:10.984Z,59.40
2018-07-09T20:35:13.592Z,58.40
2018-07-09T20:37:18.026Z,58.60
2018-07-09T20:39:20.397Z,58.60
2018-07-09T20:41:22.769Z,57.80
2018-07-09T20:43:25.183Z,58.00
2018-07-09T20:45:27.730Z,58.10
2018-07-09T20:47:30.243Z,58.30
2018-07-09T20:49:32.891Z,58.40
2018-07-09T20:51:35.317Z,58.40
2018-07-09T20:53:37.775Z,58.30
2018-07-09T20:55:40.262Z,58.80
2018-07-09T20:59:45.354Z,58.10
2018-07-09T21:01:47.749Z,58.40
2018-07-09T21:03:54.354Z,58.40
2018-07-09T21:05:56.828Z,58.30
2018-07-09T21:07:59.337Z,58.40
2018-07-09T21:10:01.731Z,58.30
2018-07-09T21:12:05.511Z,58.30
2018-07-09T21:14:07.924Z,58.80
2018-07-09T21:16:10.622Z,59.00
2018-07-09T21:18:12.821Z,58.80
2018-07-09T21:20:15.281Z,58.80
2018-07-09T21:22:17.697Z,59.10
2018-07-09T21:24:20.096Z,59.20
2018-07-09T21:26:22.845Z,59.10
2018-07-09T21:28:25.512Z,59.10
2018-07-09T21:30:27.886Z,59.00
2018-07-09T21:32:30.327Z,59.60
2018-07-09T21:34:32.740Z,59.40
2018-07-09T21:36:35.230Z,59.70
2018-07-09T21:38:37.687Z,59.50
2018-07-09T21:40:40.156Z,61.90
2018-07-09T21:42:42.528Z,62.50
2018-07-09T21:44:44.958Z,62.70
2018-07-09T21:46:47.320Z,62.40
2018-07-09T21:48:49.741Z,63.10
2018-07-09T21:50:52.717Z,63.40
2018-07-09T21:52:55.124Z,64.50
2018-07-09T21:57:00.198Z,65.30
2018-07-09T21:59:02.625Z,63.60
2018-07-09T22:01:05.158Z,65.90
2018-07-09T22:03:07.521Z,64.00
2018-07-09T22:05:09.972Z,64.10
2018-07-09T22:07:12.399Z,64.80
2018-07-09T22:09:14.882Z,64.90
2018-07-09T22:11:17.292Z,65.50
2018-07-09T22:13:19.673Z,65.50
2018-07-09T22:15:22.080Z,65.60
2018-07-09T22:17:24.513Z,65.60
2018-07-09T22:19:26.924Z,67.70
2018-07-09T22:21:29.336Z,68.40
2018-07-09T22:23:31.754Z,69.80
2018-07-09T22:25:34.234Z,70.40
2018-07-09T22:27:36.690Z,71.10
2018-07-09T22:29:39.165Z,70.50
2018-07-09T22:31:42.848Z,70.70
2018-07-09T22:33:46.564Z,71.20
2018-07-09T22:35:50.261Z,70.80
2018-07-09T22:37:54.191Z,71.10
2018-07-09T22:39:57.918Z,71.10
2018-07-09T22:44:15.790Z,70.70
2018-07-09T22:46:19.504Z,70.70
2018-07-09T22:48:23.174Z,71.50
2018-07-09T22:52:30.051Z,73.30
2018-07-09T22:54:33.780Z,73.60
2018-07-09T22:56:37.692Z,74.10
2018-07-09T22:58:42.317Z,74.20
2018-07-09T23:00:46.104Z,74.70
2018-07-09T23:03:17.170Z,75.10
2018-07-09T23:05:20.835Z,75.70
2018-07-09T23:13:47.761Z,73.60
2018-07-09T23:16:02.415Z,72.10
2018-07-09T23:18:17.123Z,73.10
2018-07-09T23:21:31.269Z,72.80
2018-07-09T23:23:33.823Z,72.10
2018-07-09T23:25:36.183Z,72.30
2018-07-09T23:27:39.050Z,76.30
2018-07-09T23:29:41.479Z,77.80
2018-07-09T23:31:43.925Z,78.10
2018-07-09T23:33:47.188Z,77.80
2018-07-09T23:35:49.790Z,76.70
2018-07-09T23:37:52.241Z,76.30
2018-07-09T23:39:54.604Z,75.60
2018-07-09T23:41:56.978Z,74.50
2018-07-09T23:43:59.401Z,74.40
2018-07-09T23:46:01.772Z,74.50
2018-07-09T23:48:04.176Z,75.30
2018-07-09T23:50:06.595Z,74.60
2018-07-09T23:52:09.031Z,74.80
2018-07-09T23:54:11.449Z,75.00
2018-07-09T23:56:40.404Z,74.90
2018-07-09T23:59:52.709Z,74.90
